createdAt,value
2019-02-27T00:00:20.371Z,8.16
2019-02-27T00:02:49.050Z,7.99
2019-02-27T00:05:17.673Z,8.07
2019-02-27T00:07:46.301Z,8.07
2019-02-27T00:10:15.026Z,7.53
2019-02-27T00:12:43.639Z,7.92
2019-02-27T00:15:12.324Z,8.09
2019-02-27T00:17:40.933Z,8.00
2019-02-27T00:20:09.663Z,8.05
2019-02-27T00:22:38.338Z,8.24
2019-02-27T00:25:07.021Z,8.09
2019-02-27T00:27:35.748Z,7.89
2019-02-27T00:30:05.841Z,8.05
2019-02-27T00:32:34.539Z,8.01
2019-02-27T00:35:06.152Z,7.91
2019-02-27T00:37:33.471Z,7.94
2019-02-27T00:40:05.362Z,8.01
2019-02-27T00:42:33.786Z,7.81
2019-02-27T00:45:06.812Z,7.94
2019-02-27T00:47:32.911Z,7.96
2019-02-27T00:50:05.614Z,8.04
2019-02-27T00:52:31.859Z,8.14
2019-02-27T00:55:04.246Z,8.10
2019-02-27T00:57:30.920Z,7.95
2019-02-27T00:59:59.494Z,7.96
2019-02-27T01:02:28.088Z,8.16
2019-02-27T01:04:56.762Z,8.05
2019-02-27T01:07:25.750Z,7.94
2019-02-27T01:09:54.350Z,7.89
2019-02-27T01:12:25.262Z,7.94
2019-02-27T01:14:53.497Z,7.99
2019-02-27T01:17:23.850Z,7.93
2019-02-27T01:19:52.457Z,8.00
2019-02-27T01:22:21.065Z,8.00
2019-02-27T01:24:50.193Z,7.85
2019-02-27T01:27:19.327Z,7.90
2019-02-27T01:29:50.945Z,7.84
2019-02-27T01:32:18.249Z,7.89
2019-02-27T01:34:46.826Z,7.73
2019-02-27T01:37:15.566Z,7.83
2019-02-27T01:39:44.762Z,7.92
2019-02-27T01:42:13.314Z,7.64
2019-02-27T01:44:44.029Z,7.77
2019-02-27T01:47:14.210Z,7.76
2019-02-27T01:49:43.896Z,7.75
2019-02-27T01:52:12.474Z,7.59
2019-02-27T01:54:41.046Z,7.69
2019-02-27T01:57:09.714Z,7.91
2019-02-27T01:59:38.326Z,7.73
2019-02-27T02:02:06.927Z,7.57
2019-02-27T02:04:35.674Z,7.67
2019-02-27T02:07:06.599Z,7.63
2019-02-27T02:09:38.899Z,7.53
2019-02-27T02:12:13.417Z,7.44
2019-02-27T02:14:55.240Z,7.52
2019-02-27T02:18:17.299Z,7.65
2019-02-27T02:21:48.332Z,7.47
2019-02-27T02:25:13.009Z,7.53
2019-02-27T02:28:18.899Z,7.14
2019-02-27T02:31:27.535Z,7.39
2019-02-27T02:34:40.136Z,7.41
2019-02-27T02:37:18.140Z,7.46
2019-02-27T02:39:58.210Z,7.56
2019-02-27T02:42:46.664Z,7.50
2019-02-27T02:45:21.619Z,7.49
2019-02-27T02:48:12.707Z,7.50
2019-02-27T02:50:54.978Z,7.55
2019-02-27T02:53:35.195Z,7.41
2019-02-27T02:56:47.368Z,7.36
2019-02-27T02:59:59.885Z,7.40
2019-02-27T03:03:06.283Z,7.57
2019-02-27T03:06:34.746Z,7.42
2019-02-27T03:09:15.637Z,7.00
2019-02-27T03:12:22.949Z,7.21
2019-02-27T03:15:29.584Z,7.22
2019-02-27T03:18:21.651Z,7.41
2019-02-27T03:21:27.861Z,7.46
2019-02-27T03:24:20.403Z,7.37
2019-02-27T03:27:29.573Z,7.35
2019-02-27T03:30:33.673Z,7.36
2019-02-27T03:33:10.573Z,7.44
2019-02-27T03:36:18.746Z,7.43
2019-02-27T03:39:11.275Z,7.41
2019-02-27T03:42:12.198Z,7.50
2019-02-27T03:45:05.093Z,7.48
2019-02-27T03:48:08.559Z,7.22
2019-02-27T03:51:03.269Z,7.40
2019-02-27T03:54:12.415Z,7.43
2019-02-27T03:57:03.051Z,7.36
2019-02-27T04:00:19.194Z,7.30
2019-02-27T04:03:18.769Z,7.35
2019-02-27T04:06:39.689Z,7.25
2019-02-27T04:09:09.714Z,7.35
2019-02-27T04:11:41.423Z,7.45
2019-02-27T04:14:29.099Z,7.20
2019-02-27T04:16:57.691Z,7.18
2019-02-27T04:19:26.503Z,7.25
2019-02-27T04:22:00.520Z,7.35
2019-02-27T04:24:25.586Z,7.34
2019-02-27T04:26:54.425Z,7.49
2019-02-27T04:29:23.026Z,7.43
2019-02-27T04:31:51.605Z,7.42
2019-02-27T04:34:20.297Z,7.31
2019-02-27T04:36:48.871Z,7.34
2019-02-27T04:39:17.458Z,7.34
2019-02-27T04:41:46.045Z,7.42
2019-02-27T04:44:14.658Z,7.50
2019-02-27T04:46:43.269Z,7.50
2019-02-27T04:49:11.851Z,6.99
2019-02-27T04:51:40.445Z,7.34
2019-02-27T04:54:09.116Z,7.29
2019-02-27T04:56:37.718Z,7.28
2019-02-27T04:59:06.289Z,7.52
2019-02-27T05:01:36.679Z,7.45
2019-02-27T05:04:05.351Z,7.28
2019-02-27T05:06:33.947Z,7.28
2019-02-27T05:09:02.530Z,7.22
2019-02-27T05:11:31.110Z,7.35
2019-02-27T05:13:59.681Z,7.31
2019-02-27T05:16:28.268Z,7.30
2019-02-27T05:18:56.867Z,7.27
2019-02-27T05:21:25.437Z,7.21
2019-02-27T05:23:54.050Z,7.23
2019-02-27T05:26:27.043Z,7.22
2019-02-27T05:28:52.943Z,7.30
2019-02-27T05:31:21.572Z,7.35
2019-02-27T05:33:50.353Z,7.20
2019-02-27T05:36:19.486Z,7.21
2019-02-27T05:38:48.163Z,7.22
2019-02-27T05:41:16.877Z,7.30
2019-02-27T05:43:48.542Z,7.24
2019-02-27T05:46:15.767Z,7.28
2019-02-27T05:48:44.481Z,7.38
2019-02-27T05:51:13.059Z,7.25
2019-02-27T05:53:41.709Z,7.23
2019-02-27T05:56:10.305Z,7.23
2019-02-27T05:58:38.892Z,7.20
2019-02-27T06:01:07.482Z,7.22
2019-02-27T06:03:36.043Z,7.28
2019-02-27T06:06:06.701Z,7.26
2019-02-27T06:08:38.003Z,7.25
2019-02-27T06:11:05.703Z,7.26
2019-02-27T06:13:34.292Z,7.41
2019-02-27T06:16:03.846Z,7.28
2019-02-27T06:18:33.236Z,7.33
2019-02-27T06:21:01.819Z,7.27
2019-02-27T06:23:30.401Z,7.32
2019-02-27T06:26:00.148Z,7.32
2019-02-27T06:28:28.810Z,7.13
2019-02-27T06:30:57.419Z,7.15
2019-02-27T06:33:26.044Z,7.21
2019-02-27T06:35:54.687Z,7.38
2019-02-27T06:38:25.338Z,7.30
2019-02-27T06:40:53.601Z,7.40
2019-02-27T06:43:22.252Z,7.33
2019-02-27T06:45:50.913Z,7.48
2019-02-27T06:48:19.523Z,7.53
2019-02-27T06:50:48.265Z,7.52
2019-02-27T06:53:16.878Z,7.42
2019-02-27T06:55:45.489Z,7.48
2019-02-27T06:58:15.431Z,7.60
2019-02-27T07:00:44.071Z,7.34
2019-02-27T07:03:12.675Z,7.40
2019-02-27T07:05:41.663Z,7.64
2019-02-27T07:08:10.288Z,7.66
2019-02-27T07:10:39.018Z,8.06
2019-02-27T07:13:07.726Z,8.26
2019-02-27T07:15:37.343Z,8.67
2019-02-27T07:18:06.701Z,9.01
2019-02-27T07:20:35.416Z,9.14
2019-02-27T07:23:03.986Z,9.02
2019-02-27T07:25:32.884Z,9.06
2019-02-27T07:28:03.444Z,9.20
2019-02-27T07:30:31.777Z,9.25
2019-02-27T07:33:00.424Z,9.33
2019-02-27T07:35:29.360Z,9.64
2019-02-27T07:37:57.896Z,9.70
2019-02-27T07:40:26.588Z,9.89
2019-02-27T07:42:55.193Z,9.99
2019-02-27T07:45:23.910Z,10.15
2019-02-27T07:47:52.670Z,10.35
2019-02-27T07:50:21.600Z,10.46
2019-02-27T07:52:51.946Z,10.20
2019-02-27T07:55:23.004Z,10.30
2019-02-27T07:57:51.033Z,10.69
2019-02-27T08:00:19.752Z,10.81
2019-02-27T08:02:48.334Z,10.90
2019-02-27T08:05:17.179Z,10.98
2019-02-27T08:07:48.694Z,11.09
2019-02-27T08:10:17.667Z,11.11
2019-02-27T08:12:46.348Z,11.28
2019-02-27T08:15:16.348Z,11.89
2019-02-27T08:17:45.008Z,12.76
2019-02-27T08:20:13.826Z,13.67
2019-02-27T08:22:42.519Z,14.05
2019-02-27T08:25:11.922Z,14.05
2019-02-27T08:27:43.057Z,14.70
2019-02-27T08:30:16.476Z,14.70
2019-02-27T08:32:45.171Z,14.86
2019-02-27T08:35:13.845Z,15.16
2019-02-27T08:37:42.488Z,15.67
2019-02-27T08:40:11.405Z,16.07
2019-02-27T08:42:40.620Z,16.57
2019-02-27T08:45:18.954Z,16.63
2019-02-27T08:47:40.858Z,16.65
2019-02-27T08:50:13.891Z,16.96
2019-02-27T08:52:44.417Z,17.40
2019-02-27T08:55:19.875Z,17.80
2019-02-27T08:57:44.115Z,18.65
2019-02-27T09:00:15.264Z,21.09
2019-02-27T09:02:44.053Z,23.10
2019-02-27T09:05:12.904Z,26.21
2019-02-27T09:07:43.073Z,28.20
2019-02-27T09:10:12.649Z,29.66
2019-02-27T09:12:41.431Z,31.81
2019-02-27T09:15:10.508Z,32.53
2019-02-27T09:17:39.187Z,32.42
2019-02-27T09:20:08.934Z,31.70
2019-02-27T09:22:37.683Z,29.56
2019-02-27T09:25:06.425Z,31.42
2019-02-27T09:27:35.328Z,31.46
2019-02-27T09:30:04.495Z,34.49
2019-02-27T09:32:33.144Z,34.04
2019-02-27T09:35:01.868Z,32.46
2019-02-27T09:37:30.752Z,32.32
2019-02-27T09:40:04.514Z,34.16
2019-02-27T09:42:29.797Z,34.09
2019-02-27T09:44:58.544Z,33.05
2019-02-27T09:47:27.228Z,34.25
2019-02-27T09:49:55.909Z,35.30
2019-02-27T09:52:24.567Z,33.16
2019-02-27T09:54:54.808Z,30.85
2019-02-27T09:57:23.603Z,33.85
2019-02-27T09:59:53.693Z,34.59
2019-02-27T10:02:22.954Z,34.34
2019-02-27T10:04:51.591Z,34.69
2019-02-27T10:07:20.402Z,36.03
2019-02-27T10:09:49.112Z,38.02
2019-02-27T10:12:17.842Z,39.10
2019-02-27T10:14:47.935Z,39.45
2019-02-27T10:17:16.916Z,39.41
2019-02-27T10:19:45.565Z,35.69
2019-02-27T10:22:17.687Z,33.35
2019-02-27T10:24:44.573Z,32.35
2019-02-27T10:27:13.204Z,31.82
2019-02-27T10:29:41.814Z,30.60
2019-02-27T10:32:10.482Z,30.56
2019-02-27T10:34:39.152Z,31.85
2019-02-27T10:37:12.855Z,32.48
2019-02-27T10:39:38.404Z,31.20
2019-02-27T10:42:07.154Z,29.98
2019-02-27T10:44:35.845Z,31.36
2019-02-27T10:47:04.529Z,31.51
2019-02-27T10:49:33.242Z,31.72
2019-02-27T10:52:01.905Z,32.18
2019-02-27T10:54:30.557Z,33.22
2019-02-27T10:56:59.376Z,33.77
2019-02-27T10:59:28.066Z,32.25
2019-02-27T11:01:56.995Z,34.27
2019-02-27T11:04:25.647Z,32.70
2019-02-27T11:06:54.308Z,31.90
2019-02-27T11:09:27.777Z,30.50
2019-02-27T11:11:56.380Z,29.76
2019-02-27T11:14:25.127Z,29.49
2019-02-27T11:16:53.813Z,28.95
2019-02-27T11:19:22.476Z,27.99
2019-02-27T11:21:51.136Z,27.33
2019-02-27T11:24:19.741Z,26.51
2019-02-27T11:26:48.361Z,26.40
2019-02-27T11:29:16.978Z,26.44
2019-02-27T11:31:46.155Z,26.09
2019-02-27T11:34:16.087Z,25.77
2019-02-27T11:36:44.860Z,24.73
2019-02-27T11:39:13.561Z,25.67
2019-02-27T11:41:42.288Z,25.53
2019-02-27T11:44:14.038Z,25.01
2019-02-27T11:46:41.486Z,24.39
2019-02-27T11:49:10.235Z,24.93
2019-02-27T11:51:38.901Z,24.29
2019-02-27T11:54:09.059Z,24.18
2019-02-27T11:56:38.077Z,25.69
2019-02-27T11:59:06.901Z,27.34
2019-02-27T12:01:35.613Z,28.59
2019-02-27T12:04:05.660Z,28.26
2019-02-27T12:06:34.377Z,30.22
2019-02-27T12:09:03.073Z,31.48
2019-02-27T12:11:31.846Z,31.58
2019-02-27T12:14:00.548Z,31.31
2019-02-27T12:16:29.328Z,33.13
2019-02-27T12:18:58.046Z,33.64
2019-02-27T12:21:26.903Z,33.51
2019-02-27T12:23:55.710Z,32.92
2019-02-27T12:26:24.500Z,31.47
2019-02-27T12:28:53.934Z,32.54
2019-02-27T12:31:22.707Z,32.08
2019-02-27T12:33:51.356Z,30.05
2019-02-27T12:36:20.389Z,30.93
2019-02-27T12:38:49.040Z,30.64
2019-02-27T12:41:17.714Z,31.16
2019-02-27T12:43:46.343Z,30.80
2019-02-27T12:46:15.098Z,32.61
2019-02-27T12:48:46.046Z,32.67
2019-02-27T12:51:15.668Z,31.72
2019-02-27T12:53:44.356Z,32.10
2019-02-27T12:56:13.092Z,32.24
2019-02-27T12:58:41.900Z,31.75
2019-02-27T13:01:10.695Z,32.83
2019-02-27T13:03:42.234Z,32.17
2019-02-27T13:06:09.726Z,32.57
2019-02-27T13:08:38.385Z,32.32
2019-02-27T13:11:07.966Z,32.09
2019-02-27T13:13:37.379Z,31.80
2019-02-27T13:16:06.092Z,30.35
2019-02-27T13:18:34.696Z,29.07
2019-02-27T13:21:03.358Z,29.12
2019-02-27T13:23:31.981Z,28.19
2019-02-27T13:26:01.145Z,26.49
2019-02-27T13:28:30.263Z,26.56
2019-02-27T13:30:59.116Z,25.72
2019-02-27T13:33:27.834Z,25.97
2019-02-27T13:35:56.727Z,25.10
2019-02-27T13:38:27.146Z,25.23
2019-02-27T13:40:56.718Z,25.38
2019-02-27T13:43:27.128Z,25.50
2019-02-27T13:45:55.906Z,25.72
2019-02-27T13:48:24.516Z,25.63
2019-02-27T13:50:53.233Z,24.80
2019-02-27T13:53:25.734Z,25.35
2019-02-27T13:55:52.290Z,25.37
2019-02-27T13:58:21.225Z,24.94
2019-02-27T14:00:53.618Z,25.01
2019-02-27T14:03:20.440Z,25.14
2019-02-27T14:05:49.124Z,24.30
2019-02-27T14:08:17.751Z,24.95
2019-02-27T14:10:46.482Z,23.97
2019-02-27T14:13:15.097Z,24.72
2019-02-27T14:15:43.750Z,24.15
2019-02-27T14:18:16.120Z,24.28
2019-02-27T14:20:43.916Z,24.18
2019-02-27T14:23:14.586Z,24.23
2019-02-27T14:25:43.459Z,23.80
2019-02-27T14:28:12.271Z,23.93
2019-02-27T14:30:43.491Z,23.94
2019-02-27T14:33:12.169Z,23.73
2019-02-27T14:35:40.998Z,24.01
2019-02-27T14:38:09.626Z,23.83
2019-02-27T14:40:41.212Z,23.84
2019-02-27T14:43:09.086Z,23.77
2019-02-27T14:45:41.053Z,23.83
2019-02-27T14:48:09.284Z,24.16
2019-02-27T14:50:38.223Z,24.02
2019-02-27T14:53:18.517Z,24.41
2019-02-27T14:55:44.495Z,24.17
2019-02-27T14:58:13.274Z,23.80
2019-02-27T15:00:42.349Z,24.03
2019-02-27T15:03:11.588Z,24.08
2019-02-27T15:05:44.755Z,23.63
2019-02-27T15:08:13.565Z,23.86
2019-02-27T15:10:42.627Z,23.44
2019-02-27T15:13:11.234Z,23.26
2019-02-27T15:15:43.172Z,23.43
2019-02-27T15:18:10.285Z,23.75
2019-02-27T15:20:41.097Z,24.25
2019-02-27T15:23:09.530Z,24.32
2019-02-27T15:25:42.240Z,24.08
2019-02-27T15:28:08.686Z,24.02
2019-02-27T15:30:37.402Z,23.46
2019-02-27T15:33:06.043Z,23.40
2019-02-27T15:35:34.833Z,23.49
2019-02-27T15:38:03.737Z,23.78
2019-02-27T15:40:32.439Z,23.51
2019-02-27T15:43:01.299Z,23.15
2019-02-27T15:45:29.991Z,23.28
2019-02-27T15:47:58.628Z,22.81
2019-02-27T15:50:27.467Z,22.46
2019-02-27T15:52:56.257Z,22.46
2019-02-27T15:55:24.949Z,22.66
2019-02-27T15:57:54.209Z,22.05
2019-02-27T16:00:23.079Z,22.22
2019-02-27T16:02:51.874Z,22.11
2019-02-27T16:05:20.657Z,21.38
2019-02-27T16:07:49.861Z,21.86
2019-02-27T16:10:19.959Z,21.83
2019-02-27T16:12:49.047Z,21.89
2019-02-27T16:15:18.212Z,21.28
2019-02-27T16:17:46.978Z,21.00
2019-02-27T16:20:16.864Z,20.88
2019-02-27T16:22:45.601Z,20.89
2019-02-27T16:25:18.299Z,20.29
2019-02-27T16:27:46.454Z,20.19
2019-02-27T16:30:17.658Z,19.51
2019-02-27T16:32:48.645Z,19.38
2019-02-27T16:35:16.834Z,18.75
2019-02-27T16:37:45.918Z,18.37
2019-02-27T16:40:17.991Z,18.49
2019-02-27T16:42:46.177Z,18.08
2019-02-27T16:45:17.039Z,18.03
2019-02-27T16:47:45.790Z,18.09
2019-02-27T16:50:16.588Z,17.95
2019-02-27T16:52:45.500Z,17.55
2019-02-27T16:55:15.348Z,17.34
2019-02-27T16:57:44.007Z,17.25
2019-02-27T17:00:18.261Z,17.44
2019-02-27T17:02:44.604Z,16.93
2019-02-27T17:05:13.560Z,17.08
2019-02-27T17:07:42.249Z,16.84
2019-02-27T17:10:14.990Z,16.36
2019-02-27T17:12:44.131Z,16.19
2019-02-27T17:15:12.827Z,15.99
2019-02-27T17:17:41.786Z,15.80
2019-02-27T17:20:12.862Z,15.68
2019-02-27T17:22:41.627Z,15.91
2019-02-27T17:25:10.843Z,15.56
2019-02-27T17:27:39.488Z,15.41
2019-02-27T17:30:15.743Z,15.44
2019-02-27T17:32:44.335Z,14.74
2019-02-27T17:35:13.127Z,14.93
2019-02-27T17:37:42.251Z,15.09
2019-02-27T17:40:11.053Z,14.97
2019-02-27T17:42:39.675Z,14.91
2019-02-27T17:45:10.098Z,14.65
2019-02-27T17:47:39.378Z,14.48
2019-02-27T17:50:08.390Z,14.40
2019-02-27T17:52:36.990Z,14.09
2019-02-27T17:55:06.796Z,14.09
2019-02-27T17:57:36.291Z,13.74
2019-02-27T18:00:06.471Z,13.74
2019-02-27T18:02:35.107Z,14.22
2019-02-27T18:07:51.761Z,14.12
2019-02-27T18:10:20.373Z,14.00
2019-02-27T18:12:48.995Z,13.56
2019-02-27T18:15:20.456Z,13.56
2019-02-27T18:17:48.303Z,13.05
2019-02-27T18:20:17.101Z,13.21
2019-02-27T18:22:45.988Z,13.09
2019-02-27T18:25:17.986Z,13.02
2019-02-27T18:27:47.908Z,13.09
2019-02-27T18:30:18.872Z,13.01
2019-02-27T18:32:47.759Z,12.96
2019-02-27T18:35:16.844Z,13.16
2019-02-27T18:37:45.440Z,13.17
2019-02-27T18:40:14.284Z,13.03
2019-02-27T18:43:02.162Z,12.88
2019-02-27T18:45:31.414Z,12.94
2019-02-27T18:48:00.078Z,12.75
2019-02-27T18:50:28.906Z,12.63
2019-02-27T18:52:57.588Z,12.40
2019-02-27T18:55:29.543Z,12.33
2019-02-27T18:57:56.524Z,12.50
2019-02-27T19:00:25.346Z,12.35
2019-02-27T19:02:54.453Z,12.14
2019-02-27T19:05:42.331Z,12.37
2019-02-27T19:08:10.976Z,12.14
2019-02-27T19:10:42.464Z,12.20
2019-02-27T19:13:09.921Z,12.12
2019-02-27T19:15:38.845Z,12.19
2019-02-27T19:18:07.688Z,12.03
2019-02-27T19:20:56.172Z,12.00
2019-02-27T19:23:26.131Z,11.85
2019-02-27T19:25:54.990Z,12.26
2019-02-27T19:28:24.841Z,11.96
2019-02-27T19:30:54.062Z,11.71
2019-02-27T19:33:22.646Z,11.96
2019-02-27T19:35:55.970Z,12.09
2019-02-27T19:38:21.888Z,12.09
2019-02-27T19:40:50.557Z,12.18
2019-02-27T19:43:38.390Z,12.20
2019-02-27T19:46:09.867Z,11.91
2019-02-27T19:48:37.327Z,12.42
2019-02-27T19:51:06.067Z,12.33
2019-02-27T19:53:39.358Z,12.17
2019-02-27T19:56:05.064Z,12.06
2019-02-27T19:58:33.664Z,12.14
2019-02-27T20:01:02.279Z,12.48
2019-02-27T20:03:34.881Z,12.41
2019-02-27T20:06:01.195Z,12.41
2019-02-27T20:08:30.192Z,12.51
2019-02-27T20:11:02.396Z,12.51
2019-02-27T20:13:32.222Z,12.54
2019-02-27T20:16:00.796Z,12.44
2019-02-27T20:18:29.663Z,12.60
2019-02-27T20:20:58.688Z,12.45
2019-02-27T20:23:27.306Z,12.50
2019-02-27T20:25:56.200Z,12.50
2019-02-27T20:28:29.021Z,12.35
2019-02-27T20:30:58.035Z,12.32
2019-02-27T20:33:26.876Z,12.21
2019-02-27T20:35:56.685Z,12.36
2019-02-27T20:38:25.585Z,12.34
2019-02-27T20:40:54.853Z,12.33
2019-02-27T20:43:29.166Z,12.21
2019-02-27T20:45:54.324Z,12.45
2019-02-27T20:48:22.995Z,12.50
2019-02-27T20:50:52.278Z,12.62
2019-02-27T20:55:41.583Z,11.46
2019-02-27T20:58:10.243Z,12.11
2019-02-27T21:00:58.360Z,11.96
2019-02-27T21:03:27.942Z,11.95
2019-02-27T21:05:57.404Z,11.99
2019-02-27T21:08:45.240Z,12.00
2019-02-27T21:11:13.852Z,12.00
2019-02-27T21:13:42.762Z,11.69
2019-02-27T21:16:11.508Z,11.71
2019-02-27T21:18:40.133Z,11.83
2019-02-27T21:21:08.839Z,11.77
2019-02-27T21:23:37.487Z,11.98
2019-02-27T21:26:06.219Z,12.09
2019-02-27T21:28:34.805Z,12.15
2019-02-27T21:31:03.666Z,12.16
2019-02-27T21:33:32.343Z,12.04
2019-02-27T21:36:03.451Z,11.82
2019-02-27T21:38:31.290Z,11.54
2019-02-27T21:41:00.067Z,11.56
2019-02-27T21:43:28.724Z,11.51
2019-02-27T21:45:57.313Z,11.53
2019-02-27T21:48:26.860Z,11.49
2019-02-27T21:50:56.684Z,11.25
2019-02-27T21:53:26.146Z,11.34
2019-02-27T21:55:55.723Z,11.59
2019-02-27T21:58:24.644Z,11.69
2019-02-27T22:01:05.263Z,11.72
2019-02-27T22:03:35.205Z,11.77
2019-02-27T22:06:04.238Z,11.94
2019-02-27T22:08:32.952Z,11.97
2019-02-27T22:11:01.879Z,12.20
2019-02-27T22:13:32.341Z,12.25
2019-02-27T22:16:01.219Z,12.27
2019-02-27T22:18:29.822Z,12.19
2019-02-27T22:20:59.713Z,12.37
2019-02-27T22:23:28.826Z,12.40
2019-02-27T22:25:57.441Z,12.42
2019-02-27T22:28:26.138Z,12.45
2019-02-27T22:31:13.990Z,12.45
2019-02-27T22:33:42.590Z,12.59
2019-02-27T22:36:12.781Z,12.62
2019-02-27T22:38:41.598Z,12.62
2019-02-27T22:43:44.739Z,12.65
2019-02-27T22:46:13.610Z,12.89
2019-02-27T22:48:44.105Z,12.77
2019-02-27T22:51:13.468Z,12.72
2019-02-27T22:54:02.150Z,12.80
2019-02-27T22:56:31.379Z,12.88
2019-02-27T22:59:03.010Z,12.92
2019-02-27T23:04:39.517Z,13.05
2019-02-27T23:07:08.429Z,13.12
2019-02-27T23:09:37.511Z,13.18
2019-02-27T23:12:08.545Z,12.87
2019-02-27T23:14:55.778Z,12.89
2019-02-27T23:17:24.479Z,12.82
2019-02-27T23:19:53.109Z,13.25
2019-02-27T23:22:21.869Z,12.93
2019-02-27T23:24:50.481Z,13.34
2019-02-27T23:27:19.102Z,12.77
2019-02-27T23:32:21.759Z,13.44
2019-02-27T23:34:50.410Z,13.61
2019-02-27T23:37:19.084Z,13.74
2019-02-27T23:39:47.792Z,13.29
2019-02-27T23:42:16.476Z,13.29
2019-02-27T23:47:32.842Z,13.53
2019-02-27T23:50:01.492Z,14.09
2019-02-27T23:52:30.096Z,14.03
2019-02-27T23:54:58.728Z,14.03
2019-02-27T23:57:27.339Z,14.28
2019-02-27T23:59:55.965Z,14.46
